Time;durP1;ratioP1;P1;durP2;ratioP2;P2;SDS_P1;SDS_P2;PMS_P1;PMS_P2;Temp;Humidity;BMP_temperature;BMP_pressure;BME280_temperature;BME280_humidity;BME280_pressure;Samples;Min_cycle;Max_cycle;Signal;HPM_P1;HPM_P2
2022/03/09 00:02:10;;;;;;;9.73;3.30;;;;;;;;;;5086512;28;20023;-64
2022/03/09 00:04:36;;;;;;;5.10;3.50;;;;;;;;;;5077647;28;20127;-64
2022/03/09 00:07:02;;;;;;;7.15;4.50;;;;;;;;;;5096253;28;20477;-64
2022/03/09 00:09:28;;;;;;;6.22;4.35;;;;;;;;;;5095824;28;20032;-64
2022/03/09 00:11:54;;;;;;;8.27;5.28;;;;;;;;;;5095773;28;20077;-64
2022/03/09 00:14:20;;;;;;;5.13;4.30;;;;;;;;;;5094871;28;20051;-64
2022/03/09 00:16:46;;;;;;;9.40;4.68;;;;;;;;;;5095753;28;20797;-64
2022/03/09 00:19:12;;;;;;;10.65;5.28;;;;;;;;;;5095544;28;20031;-65
2022/03/09 00:21:38;;;;;;;7.07;5.40;;;;;;;;;;5095508;28;20044;-64
2022/03/09 00:24:04;;;;;;;5.82;4.60;;;;;;;;;;5095403;28;20089;-64
2022/03/09 00:26:31;;;;;;;6.65;4.38;;;;;;;;;;5095800;28;20058;-64
2022/03/09 00:28:57;;;;;;;6.65;5.43;;;;;;;;;;5095656;28;20128;-64
2022/03/09 00:31:22;;;;;;;7.47;4.43;;;;;;;;;;5095300;28;20111;-64
2022/03/09 00:33:49;;;;;;;9.60;4.88;;;;;;;;;;5095434;28;20028;-64
2022/03/09 00:36:15;;;;;;;10.57;5.63;;;;;;;;;;5095222;28;20036;-64
2022/03/09 00:38:41;;;;;;;6.30;5.43;;;;;;;;;;5095499;28;20027;-64
2022/03/09 00:41:07;;;;;;;6.55;5.25;;;;;;;;;;5095176;28;20035;-64
2022/03/09 00:43:32;;;;;;;6.43;5.50;;;;;;;;;;5094734;28;20492;-64
2022/03/09 00:45:59;;;;;;;8.82;5.40;;;;;;;;;;5095225;28;20012;-64
2022/03/09 00:48:25;;;;;;;5.70;4.50;;;;;;;;;;5077130;28;20035;-64
2022/03/09 00:50:51;;;;;;;6.10;4.82;;;;;;;;;;5095117;28;20032;-65
2022/03/09 00:53:17;;;;;;;6.22;5.40;;;;;;;;;;5095115;28;20020;-63
2022/03/09 00:55:43;;;;;;;7.68;4.82;;;;;;;;;;5095157;28;20111;-63
2022/03/09 00:58:09;;;;;;;7.03;4.88;;;;;;;;;;5076101;28;20032;-63
2022/03/09 01:00:35;;;;;;;6.90;6.07;;;;;;;;;;5094829;28;20028;-64
2022/03/09 01:03:01;;;;;;;5.95;4.88;;;;;;;;;;5076176;28;20696;-63
2022/03/09 01:05:27;;;;;;;5.65;4.53;;;;;;;;;;5094513;28;20024;-64
2022/03/09 01:07:53;;;;;;;6.05;4.50;;;;;;;;;;5094838;28;20363;-64
2022/03/09 01:10:19;;;;;;;5.20;4.70;;;;;;;;;;5094704;28;20035;-63
2022/03/09 01:12:46;;;;;;;5.28;4.60;;;;;;;;;;5094455;28;20473;-62
2022/03/09 01:15:12;;;;;;;5.15;4.65;;;;;;;;;;5094267;28;20032;-63
2022/03/09 01:17:38;;;;;;;5.45;4.75;;;;;;;;;;5112620;28;20382;-63
2022/03/09 01:20:04;;;;;;;8.55;4.95;;;;;;;;;;5114593;28;20031;-65
2022/03/09 01:22:30;;;;;;;24.90;4.38;;;;;;;;;;5114945;28;20071;-65
2022/03/09 01:24:56;;;;;;;7.88;4.65;;;;;;;;;;5114993;28;20015;-64
2022/03/09 01:27:22;;;;;;;9.07;4.50;;;;;;;;;;5114978;28;20034;-64
2022/03/09 01:29:48;;;;;;;22.63;4.25;;;;;;;;;;5107130;28;20024;-64
2022/03/09 01:32:14;;;;;;;8.82;4.10;;;;;;;;;;5100450;28;20035;-64
2022/03/09 01:34:40;;;;;;;6.78;3.80;;;;;;;;;;5114167;28;20097;-64
2022/03/09 01:37:06;;;;;;;9.05;4.10;;;;;;;;;;5094122;28;20038;-64
2022/03/09 01:39:32;;;;;;;11.13;3.85;;;;;;;;;;5094215;28;20016;-64
2022/03/09 01:41:58;;;;;;;7.22;4.03;;;;;;;;;;5094074;28;20028;-63
2022/03/09 01:44:24;;;;;;;7.20;3.95;;;;;;;;;;5094392;28;20024;-64
2022/03/09 01:46:52;;;;;;;7.47;3.53;;;;;;;;;;5093657;28;20047;-65
2022/03/09 01:49:19;;;;;;;12.35;4.18;;;;;;;;;;5109799;28;20028;-66
2022/03/09 01:51:46;;;;;;;6.50;3.20;;;;;;;;;;5114252;28;20028;-66
2022/03/09 01:54:12;;;;;;;11.48;3.53;;;;;;;;;;5114383;28;20062;-65
2022/03/09 01:56:39;;;;;;;6.15;3.10;;;;;;;;;;5113934;28;20096;-64
2022/03/09 01:59:06;;;;;;;7.38;3.70;;;;;;;;;;5114225;28;20019;-64
2022/03/09 02:01:32;;;;;;;4.25;3.20;;;;;;;;;;5099987;28;20032;-64
2022/03/09 02:03:58;;;;;;;8.48;3.35;;;;;;;;;;5088247;28;20642;-64
2022/03/09 02:06:25;;;;;;;7.03;3.60;;;;;;;;;;5095695;28;20393;-64
2022/03/09 02:11:36;;;;;;;3.85;2.97;;;;;;;;;;5113659;28;20030;-64
2022/03/09 02:14:03;;;;;;;5.30;3.03;;;;;;;;;;5112957;28;20035;-64
2022/03/09 02:16:29;;;;;;;3.72;3.05;;;;;;;;;;5113808;28;20020;-64
2022/03/09 02:18:55;;;;;;;12.00;2.97;;;;;;;;;;5093824;28;20055;-65
2022/03/09 02:21:23;;;;;;;6.43;2.60;;;;;;;;;;5109377;28;20062;-65
2022/03/09 02:23:50;;;;;;;7.05;3.00;;;;;;;;;;5113607;28;20050;-65
2022/03/09 02:26:16;;;;;;;3.05;2.55;;;;;;;;;;5113775;28;20031;-65
2022/03/09 02:28:46;;;;;;;5.93;2.70;;;;;;;;;;5113670;28;20100;-65
2022/03/09 02:31:12;;;;;;;10.32;3.03;;;;;;;;;;5095217;28;20027;-65
2022/03/09 02:33:38;;;;;;;4.40;2.88;;;;;;;;;;5113721;28;20053;-65
2022/03/09 02:36:04;;;;;;;6.90;3.00;;;;;;;;;;5101029;28;20036;-66
2022/03/09 02:38:30;;;;;;;6.47;2.72;;;;;;;;;;5093199;28;20085;-66
2022/03/09 02:40:56;;;;;;;6.70;3.00;;;;;;;;;;5092995;28;20095;-66
2022/03/09 02:43:23;;;;;;;4.10;2.50;;;;;;;;;;5074866;28;20181;-66
2022/03/09 02:45:49;;;;;;;11.95;2.60;;;;;;;;;;5074266;28;20020;-66
2022/03/09 02:48:15;;;;;;;5.15;2.45;;;;;;;;;;5099445;28;20034;-65
2022/03/09 02:50:41;;;;;;;8.23;3.03;;;;;;;;;;5113287;28;20027;-65
2022/03/09 02:53:07;;;;;;;8.93;2.75;;;;;;;;;;5112795;28;20046;-65
2022/03/09 02:55:33;;;;;;;7.43;2.83;;;;;;;;;;5113232;28;20530;-65
2022/03/09 02:57:59;;;;;;;16.15;3.22;;;;;;;;;;5113169;28;20035;-65
2022/03/09 03:00:25;;;;;;;14.88;3.08;;;;;;;;;;5113284;28;20020;-65
2022/03/09 03:02:51;;;;;;;9.73;2.63;;;;;;;;;;5111483;28;20031;-65
2022/03/09 03:05:17;;;;;;;16.98;2.88;;;;;;;;;;5097645;28;20048;-65
2022/03/09 03:07:43;;;;;;;15.38;2.97;;;;;;;;;;5092586;28;20075;-65
2022/03/09 03:10:09;;;;;;;6.68;2.90;;;;;;;;;;5092510;28;20027;-64
2022/03/09 03:12:35;;;;;;;8.80;2.55;;;;;;;;;;5092134;28;20039;-64
2022/03/09 03:15:03;;;;;;;10.63;2.88;;;;;;;;;;5092518;28;20028;-65
2022/03/09 03:17:30;;;;;;;10.98;2.88;;;;;;;;;;5092494;28;20025;-64
2022/03/09 03:19:56;;;;;;;9.50;2.50;;;;;;;;;;5092225;28;20024;-64
2022/03/09 03:22:22;;;;;;;11.20;2.70;;;;;;;;;;5091952;28;20103;-64
2022/03/09 03:24:48;;;;;;;5.72;2.65;;;;;;;;;;5092031;28;20111;-64
2022/03/09 03:27:14;;;;;;;10.70;2.50;;;;;;;;;;5092513;28;20074;-64
2022/03/09 03:29:40;;;;;;;16.40;2.90;;;;;;;;;;5074459;28;20020;-64
2022/03/09 03:32:07;;;;;;;20.00;3.03;;;;;;;;;;5091406;28;20035;-65
2022/03/09 03:34:33;;;;;;;9.75;2.95;;;;;;;;;;5092136;28;20459;-64
2022/03/09 03:36:59;;;;;;;19.80;3.13;;;;;;;;;;5092103;28;20040;-64
2022/03/09 03:39:25;;;;;;;23.70;3.00;;;;;;;;;;5074263;28;20382;-64
2022/03/09 03:41:51;;;;;;;8.85;2.83;;;;;;;;;;5092128;28;20103;-64
2022/03/09 03:44:16;;;;;;;15.88;3.15;;;;;;;;;;5092281;28;20391;-64
2022/03/09 03:46:44;;;;;;;15.15;3.20;;;;;;;;;;5091655;28;20085;-64
2022/03/09 03:49:10;;;;;;;8.68;2.80;;;;;;;;;;5092190;28;20566;-64
2022/03/09 03:51:36;;;;;;;9.35;2.92;;;;;;;;;;5092026;28;20111;-64
2022/03/09 03:54:02;;;;;;;15.15;2.60;;;;;;;;;;5074003;28;20024;-63
2022/03/09 03:56:28;;;;;;;10.70;2.75;;;;;;;;;;5092143;28;20024;-63
2022/03/09 03:58:54;;;;;;;5.85;2.80;;;;;;;;;;5091919;28;20035;-63
2022/03/09 04:01:20;;;;;;;9.65;2.47;;;;;;;;;;5091869;28;20020;-63
2022/03/09 04:03:46;;;;;;;6.28;3.00;;;;;;;;;;5092018;28;20020;-63
2022/03/09 04:06:12;;;;;;;15.10;2.88;;;;;;;;;;5092073;28;20047;-63
2022/03/09 04:08:38;;;;;;;10.20;2.67;;;;;;;;;;5092311;28;20024;-63
2022/03/09 04:11:04;;;;;;;7.18;2.55;;;;;;;;;;5091949;28;20024;-63
2022/03/09 04:13:30;;;;;;;4.38;2.95;;;;;;;;;;5092094;28;20025;-63
2022/03/09 04:15:56;;;;;;;5.97;2.70;;;;;;;;;;5091968;28;20024;-64
2022/03/09 04:18:21;;;;;;;5.00;2.58;;;;;;;;;;5091919;28;20047;-63
2022/03/09 04:20:47;;;;;;;5.85;2.92;;;;;;;;;;5091153;28;20038;-64
2022/03/09 04:23:13;;;;;;;4.38;2.67;;;;;;;;;;5073329;28;20511;-63
2022/03/09 04:25:39;;;;;;;5.35;2.95;;;;;;;;;;5073871;28;20458;-64
2022/03/09 04:28:05;;;;;;;4.18;2.83;;;;;;;;;;5091655;28;20020;-64
2022/03/09 04:30:32;;;;;;;4.93;3.42;;;;;;;;;;5091995;28;20028;-64
2022/03/09 04:32:58;;;;;;;6.97;2.80;;;;;;;;;;5091419;28;20107;-64
2022/03/09 04:35:24;;;;;;;9.20;2.50;;;;;;;;;;5091506;28;20498;-64
2022/03/09 04:37:50;;;;;;;11.60;2.70;;;;;;;;;;5094682;28;20134;-64
2022/03/09 04:40:16;;;;;;;5.68;2.53;;;;;;;;;;5095332;28;20032;-64
2022/03/09 04:42:42;;;;;;;5.03;2.45;;;;;;;;;;5095440;28;20024;-64
2022/03/09 04:45:09;;;;;;;5.80;2.60;;;;;;;;;;5095333;28;20380;-64
2022/03/09 04:47:35;;;;;;;4.82;2.78;;;;;;;;;;5094755;28;20447;-63
2022/03/09 04:50:01;;;;;;;8.07;2.70;;;;;;;;;;5095070;28;20427;-65
2022/03/09 04:52:27;;;;;;;5.93;2.92;;;;;;;;;;5095174;28;20035;-65
2022/03/09 04:54:53;;;;;;;4.28;2.47;;;;;;;;;;5095112;28;20387;-64
2022/03/09 04:57:19;;;;;;;11.15;3.70;;;;;;;;;;5094447;28;20456;-64
2022/03/09 04:59:45;;;;;;;8.45;2.67;;;;;;;;;;5095145;28;20028;-64
2022/03/09 05:02:11;;;;;;;5.57;2.53;;;;;;;;;;5094702;28;20417;-64
2022/03/09 05:04:37;;;;;;;5.35;2.38;;;;;;;;;;5095064;28;20034;-64
2022/03/09 05:07:03;;;;;;;5.55;2.40;;;;;;;;;;5095076;28;20036;-64
2022/03/09 05:09:29;;;;;;;4.00;2.85;;;;;;;;;;5094868;28;20107;-63
2022/03/09 05:11:55;;;;;;;12.45;2.65;;;;;;;;;;5094778;28;20028;-64
2022/03/09 05:14:21;;;;;;;4.22;2.60;;;;;;;;;;5094826;28;20031;-64
2022/03/09 05:16:47;;;;;;;6.38;2.70;;;;;;;;;;5094572;28;20032;-64
2022/03/09 05:19:13;;;;;;;8.40;2.60;;;;;;;;;;5075675;28;20032;-64
2022/03/09 05:21:39;;;;;;;8.65;3.00;;;;;;;;;;5076474;28;20028;-63
2022/03/09 05:24:05;;;;;;;6.22;2.70;;;;;;;;;;5094308;28;20060;-63
2022/03/09 05:26:32;;;;;;;3.25;2.30;;;;;;;;;;5094567;28;20024;-63
2022/03/09 05:28:58;;;;;;;4.28;2.30;;;;;;;;;;5094729;28;20093;-64
2022/03/09 05:31:24;;;;;;;8.68;2.55;;;;;;;;;;5093922;28;20471;-65
2022/03/09 05:33:50;;;;;;;6.13;2.50;;;;;;;;;;5094343;28;20450;-65
2022/03/09 05:36:16;;;;;;;7.50;2.65;;;;;;;;;;5082310;28;20730;-64
2022/03/09 05:38:42;;;;;;;5.32;2.10;;;;;;;;;;5094115;28;20040;-64
2022/03/09 05:41:08;;;;;;;7.57;2.42;;;;;;;;;;5093991;28;20440;-63
2022/03/09 05:43:35;;;;;;;7.88;2.30;;;;;;;;;;5094104;28;20031;-64
2022/03/09 05:46:01;;;;;;;5.63;2.42;;;;;;;;;;5094044;28;20024;-65
2022/03/09 05:48:27;;;;;;;3.65;2.13;;;;;;;;;;5093990;28;20050;-65
2022/03/09 05:50:53;;;;;;;5.00;2.00;;;;;;;;;;5093692;28;20028;-66
2022/03/09 05:53:19;;;;;;;10.23;2.40;;;;;;;;;;5078776;28;20131;-65
2022/03/09 05:55:45;;;;;;;9.98;2.20;;;;;;;;;;5084154;28;20106;-65
2022/03/09 05:58:10;;;;;;;15.65;2.42;;;;;;;;;;5093434;28;20043;-65
2022/03/09 06:00:36;;;;;;;3.78;2.10;;;;;;;;;;5093954;28;20020;-65
2022/03/09 06:03:02;;;;;;;9.50;1.90;;;;;;;;;;5093857;28;20078;-65
2022/03/09 06:05:29;;;;;;;15.45;2.30;;;;;;;;;;5093644;28;20032;-64
2022/03/09 06:08:04;;;;;;;12.10;2.15;;;;;;;;;;5093782;28;20057;-65
2022/03/09 06:10:30;;;;;;;5.55;2.03;;;;;;;;;;5093750;28;20471;-65
2022/03/09 06:12:56;;;;;;;18.58;2.65;;;;;;;;;;5093203;28;20043;-64
2022/03/09 06:15:22;;;;;;;23.67;2.42;;;;;;;;;;5074889;28;20123;-65
2022/03/09 06:17:49;;;;;;;14.30;2.45;;;;;;;;;;5092965;28;20035;-65
2022/03/09 06:20:16;;;;;;;25.73;2.92;;;;;;;;;;5092618;28;20042;-64
2022/03/09 06:22:42;;;;;;;19.45;3.70;;;;;;;;;;5092378;28;20376;-64
2022/03/09 06:25:08;;;;;;;16.55;4.20;;;;;;;;;;5092651;28;20032;-71
2022/03/09 06:27:45;;;;;;;13.50;3.90;;;;;;;;;;5091918;28;20035;-65
2022/03/09 06:30:11;;;;;;;19.08;4.05;;;;;;;;;;5091408;28;20024;-65
2022/03/09 06:32:37;;;;;;;16.83;3.97;;;;;;;;;;5092605;28;20050;-65
2022/03/09 06:35:04;;;;;;;15.27;4.10;;;;;;;;;;5092467;28;20013;-65
2022/03/09 06:37:30;;;;;;;13.38;3.95;;;;;;;;;;5091308;28;20036;-64
2022/03/09 06:39:59;;;;;;;15.07;3.63;;;;;;;;;;5092431;28;20034;-64
2022/03/09 06:42:25;;;;;;;10.48;3.63;;;;;;;;;;5074649;28;20560;-64
2022/03/09 06:44:51;;;;;;;10.27;3.72;;;;;;;;;;5074463;28;20117;-64
2022/03/09 06:47:18;;;;;;;11.85;4.03;;;;;;;;;;5092498;28;20058;-65
2022/03/09 06:49:44;;;;;;;12.05;3.80;;;;;;;;;;5092973;28;20039;-74
2022/03/09 06:52:10;;;;;;;27.27;3.97;;;;;;;;;;5092531;28;20032;-68
2022/03/09 06:54:36;;;;;;;31.60;4.70;;;;;;;;;;5074443;28;20086;-75
2022/03/09 06:57:02;;;;;;;32.78;3.80;;;;;;;;;;5091557;28;20059;-67
2022/03/09 06:59:28;;;;;;;23.80;4.15;;;;;;;;;;5092192;28;20036;-68
2022/03/09 07:01:54;;;;;;;16.75;4.55;;;;;;;;;;5092205;28;20145;-67
2022/03/09 07:04:20;;;;;;;30.02;4.45;;;;;;;;;;5092362;28;20031;-68
2022/03/09 07:06:46;;;;;;;18.48;4.38;;;;;;;;;;5074854;28;20016;-72
2022/03/09 07:09:12;;;;;;;13.70;3.88;;;;;;;;;;5093465;28;20028;-69
2022/03/09 07:11:38;;;;;;;11.13;4.25;;;;;;;;;;5092505;28;20529;-68
2022/03/09 07:14:04;;;;;;;12.52;4.13;;;;;;;;;;5074248;28;20043;-67
2022/03/09 07:16:30;;;;;;;31.02;4.43;;;;;;;;;;5092523;28;20371;-68
2022/03/09 07:18:56;;;;;;;20.20;4.22;;;;;;;;;;5093251;28;20081;-66
2022/03/09 07:21:22;;;;;;;16.27;4.25;;;;;;;;;;5092150;28;20023;-67
2022/03/09 07:23:48;;;;;;;16.80;4.07;;;;;;;;;;5092568;28;20103;-72
2022/03/09 07:26:15;;;;;;;21.67;4.40;;;;;;;;;;5092087;28;20028;-72
2022/03/09 07:28:41;;;;;;;19.60;4.53;;;;;;;;;;5091861;28;20063;-72
2022/03/09 07:31:07;;;;;;;14.85;4.10;;;;;;;;;;5092662;28;20040;-69
2022/03/09 07:33:33;;;;;;;20.55;5.18;;;;;;;;;;5092581;28;20115;-73
2022/03/09 07:36:00;;;;;;;20.92;4.72;;;;;;;;;;5092459;28;20120;-75
2022/03/09 07:38:26;;;;;;;17.02;4.72;;;;;;;;;;5092310;28;20032;-72
2022/03/09 07:40:52;;;;;;;15.60;4.55;;;;;;;;;;5091262;28;20024;-75
2022/03/09 07:43:25;;;;;;;13.82;4.60;;;;;;;;;;5093033;28;20036;-76
2022/03/09 07:45:51;;;;;;;12.15;4.50;;;;;;;;;;5092528;28;20054;-71
2022/03/09 07:48:17;;;;;;;11.35;4.70;;;;;;;;;;5093267;28;20020;-72
2022/03/09 07:50:43;;;;;;;7.78;4.47;;;;;;;;;;5093442;28;20085;-74
2022/03/09 07:53:09;;;;;;;13.30;5.88;;;;;;;;;;5092242;28;20017;-72
2022/03/09 07:55:35;;;;;;;15.13;4.50;;;;;;;;;;5093624;28;20425;-74
2022/03/09 07:58:01;;;;;;;15.07;4.88;;;;;;;;;;5093475;28;20119;-76
2022/03/09 08:00:27;;;;;;;5.63;4.13;;;;;;;;;;5092002;28;20024;-67
2022/03/09 08:02:54;;;;;;;9.65;4.60;;;;;;;;;;5090778;28;20042;-68
2022/03/09 08:05:21;;;;;;;14.25;4.97;;;;;;;;;;5091767;28;20020;-67
2022/03/09 08:07:47;;;;;;;11.77;5.30;;;;;;;;;;5091687;28;20027;-67
2022/03/09 08:10:13;;;;;;;7.95;5.80;;;;;;;;;;5092053;28;20370;-72
2022/03/09 08:12:39;;;;;;;8.40;5.97;;;;;;;;;;5097053;28;20051;-76
2022/03/09 08:15:05;;;;;;;11.77;6.10;;;;;;;;;;5096591;28;20020;-72
2022/03/09 08:17:31;;;;;;;12.13;6.43;;;;;;;;;;5096277;28;20039;-70
2022/03/09 08:19:57;;;;;;;10.95;6.13;;;;;;;;;;5078160;28;20058;-74
2022/03/09 08:22:23;;;;;;;12.68;5.95;;;;;;;;;;5078342;28;20448;-75
2022/03/09 08:24:50;;;;;;;8.90;6.13;;;;;;;;;;5096965;28;20020;-74
2022/03/09 08:27:16;;;;;;;10.48;6.55;;;;;;;;;;5096522;28;20141;-74
2022/03/09 08:29:50;;;;;;;8.63;6.50;;;;;;;;;;5096086;28;20047;-74
2022/03/09 08:32:18;;;;;;;9.95;7.25;;;;;;;;;;5096411;28;20032;-75
2022/03/09 08:34:44;;;;;;;10.15;8.23;;;;;;;;;;5096296;28;20131;-73
2022/03/09 08:37:10;;;;;;;9.70;7.10;;;;;;;;;;5096593;28;20067;-72
2022/03/09 08:39:36;;;;;;;11.25;7.25;;;;;;;;;;5077972;28;20031;-74
2022/03/09 08:42:02;;;;;;;9.02;6.80;;;;;;;;;;5096792;28;20027;-73
2022/03/09 08:44:28;;;;;;;13.50;7.25;;;;;;;;;;5078231;28;20020;-73
2022/03/09 08:46:54;;;;;;;7.88;6.80;;;;;;;;;;5097191;28;20087;-73
2022/03/09 08:49:20;;;;;;;10.63;7.10;;;;;;;;;;5096583;28;20054;-74
2022/03/09 08:51:46;;;;;;;12.27;7.32;;;;;;;;;;5078216;28;20031;-74
2022/03/09 08:54:12;;;;;;;10.27;7.18;;;;;;;;;;5078495;28;20024;-75
2022/03/09 08:56:38;;;;;;;10.25;6.35;;;;;;;;;;5096292;28;20468;-75
2022/03/09 08:59:04;;;;;;;12.38;7.10;;;;;;;;;;5096618;28;20035;-75
2022/03/09 09:01:30;;;;;;;8.35;6.60;;;;;;;;;;5096388;28;20096;-74
2022/03/09 09:03:56;;;;;;;9.68;6.40;;;;;;;;;;5079111;28;20028;-74
2022/03/09 09:06:22;;;;;;;7.97;6.30;;;;;;;;;;5079301;28;20022;-75
2022/03/09 09:08:48;;;;;;;10.57;6.55;;;;;;;;;;5097800;28;20468;-76
2022/03/09 09:11:14;;;;;;;9.18;6.22;;;;;;;;;;5097227;28;20093;-76
2022/03/09 09:13:41;;;;;;;10.38;6.75;;;;;;;;;;5096852;28;20016;-71
2022/03/09 09:16:07;;;;;;;6.78;5.82;;;;;;;;;;5095079;28;20114;-67
2022/03/09 09:18:33;;;;;;;6.88;6.03;;;;;;;;;;5094553;28;20119;-69
2022/03/09 09:20:59;;;;;;;9.32;6.00;;;;;;;;;;5076424;28;20024;-70
2022/03/09 09:23:25;;;;;;;8.63;6.15;;;;;;;;;;5093886;28;20521;-69
2022/03/09 09:25:51;;;;;;;8.18;6.40;;;;;;;;;;5094696;28;20027;-70
2022/03/09 09:28:17;;;;;;;7.93;6.38;;;;;;;;;;5076697;28;20403;-70
2022/03/09 09:30:43;;;;;;;8.77;6.50;;;;;;;;;;5094875;28;20042;-68
2022/03/09 09:33:09;;;;;;;8.05;6.05;;;;;;;;;;5094512;28;20043;-69
2022/03/09 09:35:35;;;;;;;9.98;6.82;;;;;;;;;;5094221;28;20046;-68
2022/03/09 09:38:06;;;;;;;8.75;6.97;;;;;;;;;;5094437;28;20032;-69
2022/03/09 09:40:34;;;;;;;11.50;6.80;;;;;;;;;;5095161;28;20012;-72
2022/03/09 09:43:01;;;;;;;10.25;7.10;;;;;;;;;;5096814;28;20479;-79
2022/03/09 09:45:27;;;;;;;8.30;6.57;;;;;;;;;;5098626;28;20446;-79
2022/03/09 09:47:53;;;;;;;9.63;6.93;;;;;;;;;;5080396;28;20126;-75
2022/03/09 09:50:19;;;;;;;9.40;6.90;;;;;;;;;;5096967;28;20074;-77
2022/03/09 09:52:45;;;;;;;8.77;6.20;;;;;;;;;;5077403;28;20483;-73
2022/03/09 09:55:12;;;;;;;8.40;6.57;;;;;;;;;;5095279;28;20040;-73
2022/03/09 09:57:38;;;;;;;8.68;6.60;;;;;;;;;;5094713;28;20127;-74
2022/03/09 10:00:05;;;;;;;8.60;6.15;;;;;;;;;;5094878;28;20035;-72
2022/03/09 10:02:31;;;;;;;9.65;6.95;;;;;;;;;;5094243;28;20024;-72
2022/03/09 10:04:57;;;;;;;9.05;6.70;;;;;;;;;;5094657;28;20094;-73
2022/03/09 10:07:23;;;;;;;9.30;7.00;;;;;;;;;;5094265;28;20499;-69
2022/03/09 10:09:49;;;;;;;27.40;7.50;;;;;;;;;;5094471;28;20040;-67
2022/03/09 10:21:26;;;;;;;15.63;7.10;;;;;;;;;;5111258;27;20869;-74
2022/03/09 10:23:53;;;;;;;10.07;6.25;;;;;;;;;;5091340;28;20058;-70
2022/03/09 10:26:19;;;;;;;16.88;8.98;;;;;;;;;;5073497;28;20046;-78
2022/03/09 10:28:55;;;;;;;18.20;7.32;;;;;;;;;;5092591;28;20025;-74
2022/03/09 10:31:31;;;;;;;18.20;7.75;;;;;;;;;;5092227;28;20111;-75
2022/03/09 10:34:07;;;;;;;10.88;7.85;;;;;;;;;;5074431;28;20025;-76
2022/03/09 10:36:33;;;;;;;16.80;8.60;;;;;;;;;;5092710;28;20028;-77
2022/03/09 10:39:12;;;;;;;24.02;8.57;;;;;;;;;;5093037;28;20031;-76
2022/03/09 10:41:38;;;;;;;15.40;8.60;;;;;;;;;;5092826;28;20047;-76
2022/03/09 10:44:04;;;;;;;13.77;9.07;;;;;;;;;;5092886;28;20028;-75
2022/03/09 10:46:56;;;;;;;14.23;8.10;;;;;;;;;;5093143;28;20028;-77
2022/03/09 10:49:25;;;;;;;15.18;8.82;;;;;;;;;;5090289;28;20040;-76
2022/03/09 10:51:53;;;;;;;13.00;8.77;;;;;;;;;;5091348;28;20468;-79
2022/03/09 10:54:26;;;;;;;16.35;8.82;;;;;;;;;;5091898;28;20032;-76
2022/03/09 10:57:15;;;;;;;13.43;8.52;;;;;;;;;;5092703;28;20035;-77
2022/03/09 10:59:52;;;;;;;10.02;8.80;;;;;;;;;;5084134;28;20045;-77
2022/03/09 11:02:22;;;;;;;16.83;9.88;;;;;;;;;;5089117;28;20118;-75
2022/03/09 11:05:07;;;;;;;12.15;9.00;;;;;;;;;;5092462;28;20021;-78
2022/03/09 11:07:34;;;;;;;13.50;9.55;;;;;;;;;;5092594;28;20130;-78
2022/03/09 11:10:01;;;;;;;13.35;9.35;;;;;;;;;;5092427;28;20028;-78
2022/03/09 11:12:28;;;;;;;12.68;9.23;;;;;;;;;;5092419;28;20475;-77
2022/03/09 11:14:55;;;;;;;16.20;9.80;;;;;;;;;;5092324;28;20525;-77
2022/03/09 11:17:24;;;;;;;15.00;10.55;;;;;;;;;;5092290;28;20012;-74
2022/03/09 11:19:51;;;;;;;18.27;10.07;;;;;;;;;;5091817;28;20048;-72
2022/03/09 11:22:17;;;;;;;14.07;10.63;;;;;;;;;;5091623;28;20024;-76
2022/03/09 11:24:43;;;;;;;18.00;10.18;;;;;;;;;;5091811;28;20498;-75
2022/03/09 11:27:10;;;;;;;12.93;9.48;;;;;;;;;;5091758;28;20099;-77
2022/03/09 11:29:36;;;;;;;14.43;10.15;;;;;;;;;;5091428;28;20102;-75
2022/03/09 11:32:06;;;;;;;16.73;11.05;;;;;;;;;;5082354;28;20392;-77
2022/03/09 11:34:41;;;;;;;13.07;10.45;;;;;;;;;;5078172;28;20074;-76
2022/03/09 11:37:15;;;;;;;14.10;10.50;;;;;;;;;;5078464;28;20024;-76
2022/03/09 11:39:42;;;;;;;15.60;9.68;;;;;;;;;;5078316;28;20051;-77
2022/03/09 11:42:20;;;;;;;14.25;10.02;;;;;;;;;;5078214;28;20028;-77
2022/03/09 11:44:50;;;;;;;15.25;10.75;;;;;;;;;;5077963;28;20028;-77
2022/03/09 11:47:17;;;;;;;16.48;10.90;;;;;;;;;;5078390;28;20464;-78
2022/03/09 11:49:45;;;;;;;17.10;11.15;;;;;;;;;;5076762;28;20077;-74
2022/03/09 11:52:13;;;;;;;15.20;11.55;;;;;;;;;;5076205;28;20024;-79
2022/03/09 11:54:41;;;;;;;17.83;12.13;;;;;;;;;;5077119;28;20029;-78
2022/03/09 11:57:07;;;;;;;70.07;12.40;;;;;;;;;;5076666;28;20021;-75
2022/03/09 11:59:33;;;;;;;24.52;11.57;;;;;;;;;;5076565;28;20035;-67
2022/03/09 12:02:03;;;;;;;28.05;13.38;;;;;;;;;;5076794;28;20021;-67
2022/03/09 12:04:53;;;;;;;26.08;13.60;;;;;;;;;;5075905;28;20484;-76
2022/03/09 12:07:28;;;;;;;36.60;14.52;;;;;;;;;;5068741;28;20028;-77
2022/03/09 12:10:00;;;;;;;30.23;15.88;;;;;;;;;;5056839;28;20039;-77
2022/03/09 12:12:27;;;;;;;35.00;16.38;;;;;;;;;;5058018;28;20025;-77
2022/03/09 12:15:03;;;;;;;36.63;17.05;;;;;;;;;;5056117;28;20037;-79
2022/03/09 12:17:30;;;;;;;24.00;16.90;;;;;;;;;;5058123;28;20021;-78
2022/03/09 12:20:15;;;;;;;29.70;17.38;;;;;;;;;;5057561;28;20037;-74
2022/03/09 12:22:59;;;;;;;35.03;17.45;;;;;;;;;;5059051;28;20029;-79
2022/03/09 12:25:43;;;;;;;30.23;17.95;;;;;;;;;;5069967;28;20030;-78
2022/03/09 12:28:25;;;;;;;27.77;18.50;;;;;;;;;;5060106;28;20032;-77
2022/03/09 12:30:57;;;;;;;28.85;17.98;;;;;;;;;;5077723;28;20016;-79
2022/03/09 12:33:39;;;;;;;28.33;18.67;;;;;;;;;;5075463;28;20036;-78
2022/03/09 12:36:05;;;;;;;27.70;18.13;;;;;;;;;;5059755;28;20460;-79
2022/03/09 12:38:35;;;;;;;28.60;19.90;;;;;;;;;;5077172;28;20267;-77
2022/03/09 12:41:01;;;;;;;29.48;18.95;;;;;;;;;;5057149;28;20041;-78
2022/03/09 12:43:28;;;;;;;30.92;19.73;;;;;;;;;;5055948;28;20017;-78
2022/03/09 12:45:55;;;;;;;30.05;19.63;;;;;;;;;;5056839;28;20028;-78
2022/03/09 12:48:22;;;;;;;29.48;19.33;;;;;;;;;;5056638;28;20017;-79
2022/03/09 12:50:48;;;;;;;27.73;18.50;;;;;;;;;;5057234;28;20021;-79
2022/03/09 12:53:20;;;;;;;31.10;19.10;;;;;;;;;;5057173;28;20035;-77
2022/03/09 12:55:50;;;;;;;35.35;19.63;;;;;;;;;;5076060;28;20028;-79
2022/03/09 12:58:22;;;;;;;31.95;20.33;;;;;;;;;;5076661;28;20052;-77
2022/03/09 13:00:48;;;;;;;33.15;20.42;;;;;;;;;;5076395;28;20439;-79
2022/03/09 13:03:14;;;;;;;33.28;20.15;;;;;;;;;;5076594;28;20033;-78
2022/03/09 13:05:40;;;;;;;34.15;20.15;;;;;;;;;;5076382;28;20155;-78
2022/03/09 13:08:07;;;;;;;31.45;19.50;;;;;;;;;;5076418;28;20017;-79
2022/03/09 13:10:39;;;;;;;32.05;20.10;;;;;;;;;;5076346;28;20110;-77
2022/03/09 13:13:06;;;;;;;34.13;19.73;;;;;;;;;;5076382;28;20023;-76
2022/03/09 13:15:35;;;;;;;32.10;19.75;;;;;;;;;;5076819;28;20479;-75
2022/03/09 13:18:01;;;;;;;29.33;19.30;;;;;;;;;;5076374;28;20059;-79
2022/03/09 13:20:27;;;;;;;37.20;19.83;;;;;;;;;;5075926;28;20500;-79
2022/03/09 13:22:54;;;;;;;42.10;21.50;;;;;;;;;;5076426;28;20028;-77
2022/03/09 13:25:19;;;;;;;31.80;18.98;;;;;;;;;;5077306;28;20024;-78
2022/03/09 13:27:46;;;;;;;33.95;19.50;;;;;;;;;;5076707;28;20414;-76
2022/03/09 13:30:16;;;;;;;30.70;18.52;;;;;;;;;;5076608;28;20036;-78
2022/03/09 13:32:42;;;;;;;32.70;19.02;;;;;;;;;;5076461;28;20149;-79
2022/03/09 13:35:09;;;;;;;32.80;19.80;;;;;;;;;;5076784;28;20024;-79
2022/03/09 13:37:36;;;;;;;30.52;18.95;;;;;;;;;;5076844;28;20032;-75
2022/03/09 13:40:03;;;;;;;31.20;19.55;;;;;;;;;;5076457;28;20044;-78
2022/03/09 13:42:40;;;;;;;32.63;20.65;;;;;;;;;;5076316;28;20021;-78
2022/03/09 13:45:11;;;;;;;29.15;18.88;;;;;;;;;;5076430;28;20043;-76
2022/03/09 13:47:47;;;;;;;30.77;19.25;;;;;;;;;;5076649;28;20032;-79
2022/03/09 13:50:23;;;;;;;34.05;20.15;;;;;;;;;;5076162;28;20033;-79
2022/03/09 13:52:50;;;;;;;33.50;19.63;;;;;;;;;;5076044;28;20024;-79
2022/03/09 13:55:20;;;;;;;29.30;19.25;;;;;;;;;;5076091;28;20020;-76
2022/03/09 13:57:47;;;;;;;30.05;18.63;;;;;;;;;;5075906;28;20029;-73
2022/03/09 14:00:21;;;;;;;26.70;17.98;;;;;;;;;;5075654;28;20473;-79
2022/03/09 14:02:48;;;;;;;27.00;16.63;;;;;;;;;;5075064;28;20052;-76
2022/03/09 14:05:26;;;;;;;28.13;18.75;;;;;;;;;;5075734;28;20415;-79
2022/03/09 14:07:52;;;;;;;31.25;19.55;;;;;;;;;;5075528;28;20021;-75
2022/03/09 14:10:24;;;;;;;32.22;20.52;;;;;;;;;;5075543;28;20032;-79
2022/03/09 14:12:50;;;;;;;31.03;20.03;;;;;;;;;;5075080;28;20051;-79
2022/03/09 14:15:16;;;;;;;29.90;19.27;;;;;;;;;;5075839;28;20036;-78
2022/03/09 14:17:42;;;;;;;34.85;21.23;;;;;;;;;;5076007;28;20107;-75
2022/03/09 14:20:10;;;;;;;32.65;18.73;;;;;;;;;;5075290;28;20384;-78
2022/03/09 14:22:43;;;;;;;35.20;21.00;;;;;;;;;;5075493;28;20025;-77
2022/03/09 14:25:09;;;;;;;29.85;20.40;;;;;;;;;;5075189;28;20033;-76
2022/03/09 14:27:36;;;;;;;34.70;20.75;;;;;;;;;;5075867;28;20028;-77
2022/03/09 14:30:04;;;;;;;35.63;21.75;;;;;;;;;;5075190;28;20031;-72
2022/03/09 14:32:30;;;;;;;34.45;19.95;;;;;;;;;;5057244;28;20056;-72
2022/03/09 14:34:56;;;;;;;32.13;19.80;;;;;;;;;;5075874;28;20053;-78
2022/03/09 14:37:22;;;;;;;30.77;19.33;;;;;;;;;;5075399;28;20032;-76
2022/03/09 14:39:48;;;;;;;33.75;21.15;;;;;;;;;;5075495;28;20096;-71
2022/03/09 14:42:14;;;;;;;33.80;19.85;;;;;;;;;;5075613;28;20021;-78
2022/03/09 14:44:40;;;;;;;31.38;19.58;;;;;;;;;;5075382;28;20028;-79
2022/03/09 14:47:09;;;;;;;37.63;21.48;;;;;;;;;;5057063;28;20476;-77